Time;durP1;ratioP1;P1;durP2;ratioP2;P2;SDS_P1;SDS_P2;PMS_P1;PMS_P2;Temp;Humidity;BMP_temperature;BMP_pressure;BME280_temperature;BME280_humidity;BME280_pressure;Samples;Min_cycle;Max_cycle;Signal;HPM_P1;HPM_P2
2023/12/26 00:00:05;;;;;;;8.48;0.70;;;;;;;;;;4948226;28;20048;-82
2023/12/26 00:02:43;;;;;;;5.93;0.60;;;;;;;;;;4961995;28;20043;-81
2023/12/26 00:05:14;;;;;;;5.28;0.60;;;;;;;;;;4956598;29;20043;-83
2023/12/26 00:07:45;;;;;;;3.10;0.60;;;;;;;;;;4939312;29;20051;-83
2023/12/26 00:10:15;;;;;;;2.83;0.50;;;;;;;;;;4954673;29;20058;-82
2023/12/26 00:12:46;;;;;;;1.13;0.60;;;;;;;;;;4937344;29;20054;-82
2023/12/26 00:15:17;;;;;;;8.70;0.70;;;;;;;;;;4951161;28;20051;-81
2023/12/26 00:17:47;;;;;;;4.40;0.90;;;;;;;;;;4937897;29;20403;-84
2023/12/26 00:20:17;;;;;;;5.70;0.80;;;;;;;;;;4939678;29;20055;-83
2023/12/26 00:22:48;;;;;;;2.13;0.63;;;;;;;;;;4941521;28;20043;-82
2023/12/26 00:25:20;;;;;;;6.57;0.63;;;;;;;;;;4944016;28;20491;-82
2023/12/26 00:27:50;;;;;;;1.83;0.90;;;;;;;;;;4957891;28;20489;-86
2023/12/26 00:30:21;;;;;;;3.92;0.70;;;;;;;;;;4924685;28;20051;-85
2023/12/26 00:32:53;;;;;;;6.53;0.60;;;;;;;;;;4940292;28;20510;-84
2023/12/26 00:35:24;;;;;;;3.72;0.90;;;;;;;;;;4955782;29;20043;-88
2023/12/26 00:37:57;;;;;;;5.13;0.90;;;;;;;;;;4936927;29;20514;-86
2023/12/26 00:40:29;;;;;;;6.53;1.23;;;;;;;;;;4940699;29;20406;-86
2023/12/26 00:42:59;;;;;;;2.60;0.82;;;;;;;;;;4939650;29;20047;-86
2023/12/26 00:45:30;;;;;;;3.03;0.70;;;;;;;;;;4938426;29;20062;-85
2023/12/26 00:48:01;;;;;;;1.90;0.60;;;;;;;;;;4923445;29;20047;-85
2023/12/26 00:50:32;;;;;;;2.80;0.80;;;;;;;;;;4934045;29;20051;-86
2023/12/26 00:53:05;;;;;;;3.00;1.20;;;;;;;;;;4937294;29;20054;-85
2023/12/26 00:55:37;;;;;;;3.47;0.70;;;;;;;;;;4937717;29;20518;-83
2023/12/26 00:58:07;;;;;;;3.67;0.80;;;;;;;;;;4938657;28;20054;-85
2023/12/26 01:00:38;;;;;;;7.40;1.45;;;;;;;;;;4953907;28;20426;-86
2023/12/26 01:03:09;;;;;;;4.93;0.70;;;;;;;;;;4958352;28;20494;-85
2023/12/26 01:05:40;;;;;;;2.50;0.57;;;;;;;;;;4943626;28;20046;-86
2023/12/26 01:08:11;;;;;;;4.95;0.70;;;;;;;;;;4945714;28;20055;-84
2023/12/26 01:10:41;;;;;;;2.53;0.60;;;;;;;;;;4962805;28;20513;-84
2023/12/26 01:13:12;;;;;;;4.10;0.60;;;;;;;;;;4945188;28;20059;-85
2023/12/26 01:15:43;;;;;;;3.33;0.52;;;;;;;;;;4944605;28;20426;-86
2023/12/26 01:18:14;;;;;;;6.07;0.77;;;;;;;;;;4953081;29;20052;-85
2023/12/26 01:20:45;;;;;;;7.25;0.90;;;;;;;;;;4953450;29;20514;-86
2023/12/26 01:23:16;;;;;;;5.47;0.80;;;;;;;;;;4936551;29;20058;-87
2023/12/26 01:25:47;;;;;;;7.88;0.90;;;;;;;;;;4953910;29;20047;-86
2023/12/26 01:28:19;;;;;;;5.22;1.17;;;;;;;;;;4936283;29;20051;-85
2023/12/26 01:30:49;;;;;;;8.30;0.93;;;;;;;;;;4935690;29;20059;-87
2023/12/26 01:33:21;;;;;;;2.85;0.77;;;;;;;;;;4936847;29;20499;-83
2023/12/26 01:35:51;;;;;;;4.40;0.80;;;;;;;;;;4950633;29;20070;-83
2023/12/26 01:38:21;;;;;;;5.05;0.70;;;;;;;;;;4935872;29;20418;-83
2023/12/26 01:40:51;;;;;;;3.42;0.60;;;;;;;;;;4935538;29;20047;-85
2023/12/26 01:43:21;;;;;;;5.82;0.70;;;;;;;;;;4919844;29;20054;-84
2023/12/26 01:45:59;;;;;;;6.00;0.93;;;;;;;;;;4933146;29;20050;-84
2023/12/26 01:48:30;;;;;;;4.50;0.80;;;;;;;;;;4949820;29;20157;-85
2023/12/26 01:51:02;;;;;;;3.90;0.70;;;;;;;;;;4934016;29;20491;-85
2023/12/26 01:53:34;;;;;;;3.95;0.68;;;;;;;;;;4936399;29;20055;-83
2023/12/26 01:56:11;;;;;;;7.95;0.90;;;;;;;;;;4947879;29;20502;-86
2023/12/26 01:58:45;;;;;;;;;;;;;;;;;;4953352;29;20047;-85
2023/12/26 02:01:16;;;;;;;5.85;0.70;;;;;;;;;;4935887;29;19922;-86
2023/12/26 02:03:47;;;;;;;5.20;0.75;;;;;;;;;;4935676;29;20059;-85
2023/12/26 02:06:17;;;;;;;2.00;0.60;;;;;;;;;;4935956;29;20062;-83
2023/12/26 02:08:50;;;;;;;3.25;0.55;;;;;;;;;;4953500;29;20062;-84
2023/12/26 02:11:22;;;;;;;5.57;1.63;;;;;;;;;;4935734;29;20501;-88
2023/12/26 02:13:52;;;;;;;1.75;0.80;;;;;;;;;;4933391;29;20052;-86
2023/12/26 02:16:26;;;;;;;4.50;0.93;;;;;;;;;;4919739;29;20482;-86
2023/12/26 02:18:58;;;;;;;6.50;0.75;;;;;;;;;;4935890;29;20043;-84
2023/12/26 02:21:28;;;;;;;4.43;0.80;;;;;;;;;;4933611;29;20055;-87
2023/12/26 02:23:59;;;;;;;5.20;0.95;;;;;;;;;;4952718;29;20514;-84
2023/12/26 02:26:33;;;;;;;3.10;0.73;;;;;;;;;;4917901;29;20506;-84
2023/12/26 02:29:06;;;;;;;3.40;0.60;;;;;;;;;;4936096;29;20039;-84
2023/12/26 02:31:39;;;;;;;12.80;1.60;;;;;;;;;;4950779;29;20462;-89
2023/12/26 02:34:10;;;;;;;6.28;1.30;;;;;;;;;;4932824;29;20040;-85
2023/12/26 02:36:42;;;;;;;2.67;0.75;;;;;;;;;;4935497;29;20514;-87
2023/12/26 02:39:13;;;;;;;4.05;1.00;;;;;;;;;;4935069;29;20044;-85
2023/12/26 02:41:45;;;;;;;;;;;;;;;;;;4926736;29;20055;-86
2023/12/26 02:44:15;;;;;;;8.95;1.08;;;;;;;;;;4927695;29;19933;-85
2023/12/26 02:46:46;;;;;;;6.25;1.10;;;;;;;;;;4919167;29;20410;-86
2023/12/26 02:49:17;;;;;;;3.20;0.88;;;;;;;;;;4935833;29;20158;-85
2023/12/26 02:51:48;;;;;;;6.68;1.50;;;;;;;;;;4948848;29;20414;-85
2023/12/26 02:54:20;;;;;;;5.40;1.05;;;;;;;;;;4954094;28;20043;-87
2023/12/26 02:56:50;;;;;;;9.15;1.38;;;;;;;;;;4956062;28;20071;-83
2023/12/26 02:59:21;;;;;;;8.98;0.75;;;;;;;;;;4921115;29;20406;-84
2023/12/26 03:01:51;;;;;;;4.10;0.82;;;;;;;;;;4937935;29;20514;-85
2023/12/26 03:04:21;;;;;;;4.63;0.90;;;;;;;;;;4954322;29;20048;-85
2023/12/26 03:06:53;;;;;;;7.05;0.80;;;;;;;;;;4938120;29;20102;-84
2023/12/26 03:09:24;;;;;;;4.82;0.80;;;;;;;;;;4953632;29;20047;-84
2023/12/26 03:11:54;;;;;;;5.15;1.00;;;;;;;;;;4955579;29;20043;-84
2023/12/26 03:14:24;;;;;;;9.48;1.30;;;;;;;;;;4956176;29;20070;-85
2023/12/26 03:16:55;;;;;;;5.10;0.93;;;;;;;;;;4948957;29;20055;-88
2023/12/26 03:19:25;;;;;;;6.55;1.40;;;;;;;;;;4922949;29;20055;-89
2023/12/26 03:21:56;;;;;;;4.57;0.88;;;;;;;;;;4933771;29;20043;-88
2023/12/26 03:24:27;;;;;;;6.25;1.02;;;;;;;;;;4939222;29;20059;-86
2023/12/26 03:26:58;;;;;;;4.60;1.35;;;;;;;;;;4953761;29;20036;-85
2023/12/26 03:29:29;;;;;;;10.32;1.17;;;;;;;;;;4955595;29;20066;-86
2023/12/26 03:32:00;;;;;;;5.82;1.08;;;;;;;;;;4936257;29;20051;-85
2023/12/26 03:34:30;;;;;;;8.13;1.15;;;;;;;;;;4922021;29;20066;-85
2023/12/26 03:37:00;;;;;;;6.53;1.08;;;;;;;;;;4937714;29;20063;-87
2023/12/26 03:39:32;;;;;;;4.93;1.08;;;;;;;;;;4956092;28;20055;-85
2023/12/26 03:42:03;;;;;;;5.90;0.98;;;;;;;;;;4938291;29;20059;-85
2023/12/26 03:44:34;;;;;;;3.22;1.25;;;;;;;;;;4935941;29;20058;-88
2023/12/26 03:47:04;;;;;;;3.65;1.10;;;;;;;;;;4937554;29;20048;-85
2023/12/26 03:49:35;;;;;;;6.30;1.00;;;;;;;;;;4937319;29;20478;-87
2023/12/26 03:52:05;;;;;;;5.82;1.10;;;;;;;;;;4955216;29;20050;-85
2023/12/26 03:54:35;;;;;;;4.80;1.02;;;;;;;;;;4936997;29;20047;-85
2023/12/26 03:57:07;;;;;;;5.82;1.13;;;;;;;;;;4937346;29;20047;-88
2023/12/26 03:59:38;;;;;;;2.97;1.13;;;;;;;;;;4936189;29;20044;-85
2023/12/26 04:02:09;;;;;;;5.50;1.05;;;;;;;;;;4933621;29;20040;-86
2023/12/26 04:04:40;;;;;;;5.00;1.10;;;;;;;;;;4932982;29;20047;-88
2023/12/26 04:07:10;;;;;;;5.72;0.90;;;;;;;;;;4924688;29;20500;-87
2023/12/26 04:09:41;;;;;;;7.68;1.60;;;;;;;;;;4917831;29;20518;-87
2023/12/26 04:12:12;;;;;;;10.07;1.38;;;;;;;;;;4925850;29;20047;-86
2023/12/26 04:14:43;;;;;;;5.68;1.00;;;;;;;;;;4915112;29;20110;-86
2023/12/26 04:17:14;;;;;;;3.15;1.58;;;;;;;;;;4917416;29;20395;-84
2023/12/26 04:19:46;;;;;;;3.88;1.10;;;;;;;;;;4919415;29;20056;-88
2023/12/26 04:22:17;;;;;;;5.40;1.10;;;;;;;;;;4953380;29;20054;-87
2023/12/26 04:24:48;;;;;;;6.57;1.10;;;;;;;;;;4920887;29;20056;-85
2023/12/26 04:27:22;;;;;;;7.82;1.10;;;;;;;;;;4921037;29;20395;-86
2023/12/26 04:29:53;;;;;;;3.80;0.93;;;;;;;;;;4937128;29;20171;-85
2023/12/26 04:32:26;;;;;;;9.20;1.40;;;;;;;;;;4936179;29;20387;-86
2023/12/26 04:34:57;;;;;;;11.13;1.30;;;;;;;;;;4952526;29;20427;-86
2023/12/26 04:37:27;;;;;;;5.70;1.15;;;;;;;;;;4920834;29;20051;-86
2023/12/26 04:39:58;;;;;;;8.20;1.33;;;;;;;;;;4938384;29;20043;-85
2023/12/26 04:42:30;;;;;;;6.63;1.42;;;;;;;;;;4936342;29;20058;-87
2023/12/26 04:45:03;;;;;;;5.53;1.23;;;;;;;;;;4921248;29;20403;-85
2023/12/26 04:47:34;;;;;;;9.15;1.30;;;;;;;;;;4937488;29;20055;-85
2023/12/26 04:50:06;;;;;;;4.90;1.13;;;;;;;;;;4936251;29;20047;-85
2023/12/26 04:52:38;;;;;;;8.15;1.30;;;;;;;;;;4936177;29;20056;-88
2023/12/26 04:55:09;;;;;;;4.53;1.30;;;;;;;;;;4921310;29;20062;-85
2023/12/26 04:57:40;;;;;;;6.93;1.20;;;;;;;;;;4935892;29;20055;-86
2023/12/26 05:00:13;;;;;;;8.25;1.25;;;;;;;;;;4920119;29;20063;-85
2023/12/26 05:02:50;;;;;;;6.68;1.35;;;;;;;;;;4936222;29;20043;-86
2023/12/26 05:05:26;;;;;;;9.45;1.50;;;;;;;;;;4921016;29;20419;-84
2023/12/26 05:07:57;;;;;;;7.85;1.52;;;;;;;;;;4935579;29;20074;-86
2023/12/26 05:10:28;;;;;;;5.63;1.15;;;;;;;;;;4935650;29;20060;-85
2023/12/26 05:13:01;;;;;;;5.43;1.17;;;;;;;;;;4951689;29;20056;-87
2023/12/26 05:15:33;;;;;;;6.00;1.25;;;;;;;;;;4935859;29;20063;-87
2023/12/26 05:18:04;;;;;;;6.32;1.10;;;;;;;;;;4937543;29;20475;-87
2023/12/26 05:20:36;;;;;;;8.45;1.38;;;;;;;;;;4934468;29;20043;-85
2023/12/26 05:23:07;;;;;;;5.30;1.40;;;;;;;;;;4935388;29;20070;-86
2023/12/26 05:25:37;;;;;;;5.07;2.20;;;;;;;;;;4935213;29;20060;-88
2023/12/26 05:28:09;;;;;;;3.42;1.17;;;;;;;;;;4934492;29;20474;-88
2023/12/26 05:30:40;;;;;;;7.63;1.42;;;;;;;;;;4919373;29;20048;-86
2023/12/26 05:33:11;;;;;;;5.28;1.23;;;;;;;;;;4919904;29;20411;-86
2023/12/26 05:35:42;;;;;;;5.43;1.30;;;;;;;;;;4904657;29;20056;-85
2023/12/26 05:38:13;;;;;;;6.25;1.30;;;;;;;;;;4934480;29;20060;-84
2023/12/26 05:40:43;;;;;;;3.80;1.02;;;;;;;;;;4904924;29;20055;-85
2023/12/26 05:43:14;;;;;;;6.93;1.20;;;;;;;;;;4919431;29;20495;-85
2023/12/26 05:45:46;;;;;;;3.83;0.82;;;;;;;;;;4936051;29;20063;-86
2023/12/26 05:48:17;;;;;;;4.95;0.93;;;;;;;;;;4935031;29;20055;-86
2023/12/26 05:50:48;;;;;;;3.45;1.05;;;;;;;;;;4950857;29;20047;-86
2023/12/26 05:53:18;;;;;;;6.70;1.10;;;;;;;;;;4934524;29;20063;-85
2023/12/26 05:55:49;;;;;;;8.07;1.55;;;;;;;;;;4919397;29;20055;-87
2023/12/26 05:58:20;;;;;;;8.43;1.08;;;;;;;;;;4936860;29;20052;-86
2023/12/26 06:00:52;;;;;;;2.88;1.10;;;;;;;;;;4936334;29;20058;-87
2023/12/26 06:03:24;;;;;;;10.88;1.83;;;;;;;;;;4941581;29;20063;-88
2023/12/26 06:05:55;;;;;;;8.05;1.17;;;;;;;;;;4941561;29;20059;-86
2023/12/26 06:08:26;;;;;;;12.57;1.58;;;;;;;;;;4925582;29;20063;-89
2023/12/26 06:10:57;;;;;;;4.97;1.20;;;;;;;;;;4919066;29;20518;-85
2023/12/26 06:13:29;;;;;;;4.95;1.17;;;;;;;;;;4949345;29;20083;-88
2023/12/26 06:15:59;;;;;;;6.47;1.70;;;;;;;;;;4934779;29;20062;-87
2023/12/26 06:18:30;;;;;;;9.63;2.20;;;;;;;;;;4935163;29;20056;-86
2023/12/26 06:21:04;;;;;;;7.95;1.25;;;;;;;;;;4935025;29;20051;-85
2023/12/26 06:23:34;;;;;;;3.80;1.13;;;;;;;;;;4919251;29;20514;-85
2023/12/26 06:26:05;;;;;;;4.57;1.42;;;;;;;;;;4935206;29;20518;-87
2023/12/26 06:28:38;;;;;;;9.68;1.30;;;;;;;;;;4935030;29;20530;-85
2023/12/26 06:31:16;;;;;;;6.53;1.23;;;;;;;;;;4950323;28;20055;-87
2023/12/26 06:33:48;;;;;;;12.15;1.48;;;;;;;;;;4918398;29;20471;-88
2023/12/26 06:36:19;;;;;;;11.38;1.52;;;;;;;;;;4918999;29;20066;-85
2023/12/26 06:38:49;;;;;;;7.68;1.10;;;;;;;;;;4933861;29;20066;-86
2023/12/26 06:41:20;;;;;;;7.15;1.20;;;;;;;;;;4936007;29;20044;-88
2023/12/26 06:43:51;;;;;;;7.82;1.20;;;;;;;;;;4918325;29;20078;-85
2023/12/26 06:46:21;;;;;;;4.63;1.20;;;;;;;;;;4934207;29;20063;-85
2023/12/26 06:48:51;;;;;;;13.70;1.50;;;;;;;;;;4934027;29;20051;-85
2023/12/26 06:51:23;;;;;;;7.60;1.30;;;;;;;;;;4936005;29;20063;-88
2023/12/26 06:53:53;;;;;;;5.32;1.10;;;;;;;;;;4934084;29;20495;-88
2023/12/26 06:56:24;;;;;;;6.13;1.33;;;;;;;;;;4933240;29;20518;-87
2023/12/26 06:58:57;;;;;;;9.70;1.10;;;;;;;;;;4933801;29;20048;-86
2023/12/26 07:01:28;;;;;;;7.18;1.02;;;;;;;;;;4932478;29;20059;-85
2023/12/26 07:04:00;;;;;;;5.32;1.05;;;;;;;;;;4937295;29;20074;-86
2023/12/26 07:06:31;;;;;;;6.25;1.23;;;;;;;;;;4922460;29;20051;-89
2023/12/26 07:09:02;;;;;;;6.00;1.00;;;;;;;;;;4953661;29;20043;-86
2023/12/26 07:11:33;;;;;;;6.50;2.17;;;;;;;;;;4922548;29;20059;-86
2023/12/26 07:14:04;;;;;;;4.57;1.15;;;;;;;;;;4922370;29;20055;-87
2023/12/26 07:16:35;;;;;;;8.95;1.27;;;;;;;;;;4937454;29;20051;-86
2023/12/26 07:19:07;;;;;;;8.07;1.00;;;;;;;;;;4952490;29;20058;-87
2023/12/26 07:21:37;;;;;;;5.05;1.30;;;;;;;;;;4936851;29;20066;-87
2023/12/26 07:24:08;;;;;;;6.07;1.10;;;;;;;;;;4921842;29;20055;-89
2023/12/26 07:26:39;;;;;;;7.35;1.13;;;;;;;;;;4922355;29;20063;-87
2023/12/26 07:29:11;;;;;;;8.20;1.45;;;;;;;;;;4937407;29;20070;-88
2023/12/26 07:31:43;;;;;;;3.78;0.95;;;;;;;;;;4921905;29;20059;-87
2023/12/26 07:34:14;;;;;;;2.80;1.00;;;;;;;;;;4937257;29;20051;-87
2023/12/26 07:36:46;;;;;;;4.45;1.23;;;;;;;;;;4938895;29;20402;-87
2023/12/26 07:39:19;;;;;;;5.05;1.40;;;;;;;;;;4937444;29;20372;-88
2023/12/26 07:41:49;;;;;;;12.40;2.42;;;;;;;;;;4937169;28;20051;-89
2023/12/26 07:44:20;;;;;;;12.25;1.70;;;;;;;;;;4940394;29;20055;-89
2023/12/26 07:46:51;;;;;;;8.88;1.55;;;;;;;;;;4940675;29;20055;-87
2023/12/26 07:49:22;;;;;;;18.50;1.52;;;;;;;;;;4940276;29;20051;-85
2023/12/26 07:51:54;;;;;;;19.65;1.95;;;;;;;;;;4940581;29;20072;-87
2023/12/26 07:54:24;;;;;;;14.50;1.65;;;;;;;;;;4940143;29;20490;-86
2023/12/26 07:56:55;;;;;;;7.65;1.30;;;;;;;;;;4939517;29;20129;-88
2023/12/26 07:59:26;;;;;;;5.03;1.42;;;;;;;;;;4941640;29;20058;-87
2023/12/26 08:01:56;;;;;;;17.63;1.92;;;;;;;;;;4925156;29;20067;-86
2023/12/26 08:04:27;;;;;;;8.40;1.45;;;;;;;;;;4956838;29;20043;-87
2023/12/26 08:06:58;;;;;;;10.60;1.73;;;;;;;;;;4940077;29;20051;-86
2023/12/26 08:09:28;;;;;;;9.63;1.38;;;;;;;;;;4939885;29;20055;-87
2023/12/26 08:11:59;;;;;;;8.98;1.70;;;;;;;;;;4925522;29;20494;-87
2023/12/26 08:14:30;;;;;;;8.70;1.45;;;;;;;;;;4940056;29;20398;-87
2023/12/26 08:17:01;;;;;;;15.00;1.55;;;;;;;;;;4925087;29;20055;-87
2023/12/26 08:19:33;;;;;;;19.48;1.30;;;;;;;;;;4939885;29;20375;-87
2023/12/26 08:22:04;;;;;;;11.15;1.60;;;;;;;;;;4940206;29;20047;-88
2023/12/26 08:24:34;;;;;;;15.60;1.73;;;;;;;;;;4923364;29;20059;-89
2023/12/26 08:27:04;;;;;;;15.52;1.45;;;;;;;;;;4939597;29;20055;-89
2023/12/26 08:29:35;;;;;;;7.18;1.25;;;;;;;;;;4939045;29;20047;-90
2023/12/26 08:32:07;;;;;;;6.18;1.30;;;;;;;;;;4939035;29;20051;-89
2023/12/26 08:34:44;;;;;;;5.80;1.00;;;;;;;;;;4939413;29;20498;-87
2023/12/26 08:37:15;;;;;;;9.20;1.05;;;;;;;;;;4956345;29;20043;-87
2023/12/26 08:39:47;;;;;;;3.08;1.13;;;;;;;;;;4939811;29;20059;-87
2023/12/26 08:42:18;;;;;;;5.20;1.13;;;;;;;;;;4940238;29;20051;-87
2023/12/26 08:44:48;;;;;;;10.40;1.27;;;;;;;;;;4956099;29;20047;-88
2023/12/26 08:47:19;;;;;;;5.28;0.80;;;;;;;;;;4924046;29;20498;-87
2023/12/26 08:49:50;;;;;;;6.63;1.13;;;;;;;;;;4939097;29;20055;-88
2023/12/26 08:52:20;;;;;;;13.40;1.50;;;;;;;;;;4940265;29;20043;-88
2023/12/26 08:54:51;;;;;;;8.77;1.30;;;;;;;;;;4923764;29;20391;-87
2023/12/26 08:57:21;;;;;;;9.73;1.55;;;;;;;;;;4924034;29;20055;-87
2023/12/26 08:59:51;;;;;;;4.63;0.95;;;;;;;;;;4939206;29;20047;-86
2023/12/26 09:02:21;;;;;;;2.17;0.77;;;;;;;;;;4939123;29;20062;-88
2023/12/26 09:04:51;;;;;;;8.43;1.20;;;;;;;;;;4939932;29;20498;-88
2023/12/26 09:07:21;;;;;;;9.43;1.52;;;;;;;;;;4939312;29;20070;-88
2023/12/26 09:09:52;;;;;;;6.80;1.60;;;;;;;;;;4957045;29;20039;-87
2023/12/26 09:12:26;;;;;;;11.93;1.65;;;;;;;;;;4939179;29;20047;-89
2023/12/26 09:14:56;;;;;;;6.72;1.33;;;;;;;;;;4938455;29;20062;-86
2023/12/26 09:17:27;;;;;;;6.38;1.80;;;;;;;;;;4939531;29;20411;-86
2023/12/26 09:19:58;;;;;;;7.97;1.15;;;;;;;;;;4939261;29;20066;-86
2023/12/26 09:22:29;;;;;;;8.95;1.45;;;;;;;;;;4955071;29;20058;-87
2023/12/26 09:25:01;;;;;;;5.22;1.45;;;;;;;;;;4956203;29;20047;-87
2023/12/26 09:27:31;;;;;;;13.43;3.45;;;;;;;;;;4938541;29;20051;-85
2023/12/26 09:30:02;;;;;;;8.25;2.03;;;;;;;;;;4952853;29;20047;-89
2023/12/26 09:32:33;;;;;;;8.60;2.05;;;;;;;;;;4922549;29;20062;-86
2023/12/26 09:35:04;;;;;;;3.45;1.45;;;;;;;;;;4949597;29;20039;-85
2023/12/26 09:37:38;;;;;;;3.30;1.30;;;;;;;;;;4937065;29;20392;-87
2023/12/26 09:40:11;;;;;;;3.95;1.15;;;;;;;;;;4935955;29;20513;-86
2023/12/26 09:42:42;;;;;;;2.28;1.10;;;;;;;;;;4937499;29;20050;-86
2023/12/26 09:45:14;;;;;;;3.92;1.20;;;;;;;;;;4922160;29;20510;-86
2023/12/26 09:47:45;;;;;;;6.75;1.33;;;;;;;;;;4954753;29;20399;-85
2023/12/26 09:50:16;;;;;;;3.10;1.40;;;;;;;;;;4937364;29;20039;-87
2023/12/26 09:52:58;;;;;;;2.00;1.05;;;;;;;;;;4954711;29;20085;-87
2023/12/26 09:55:29;;;;;;;2.63;0.90;;;;;;;;;;4949819;28;20064;-86
2023/12/26 09:58:02;;;;;;;4.57;0.90;;;;;;;;;;4951632;29;20055;-87
2023/12/26 10:00:32;;;;;;;3.88;1.17;;;;;;;;;;4919326;29;20047;-91
2023/12/26 10:03:05;;;;;;;1.40;0.90;;;;;;;;;;4903766;29;20078;-88
2023/12/26 10:05:36;;;;;;;3.80;1.00;;;;;;;;;;4918050;29;20043;-86
2023/12/26 10:08:06;;;;;;;6.47;1.00;;;;;;;;;;4930877;29;20499;-87
2023/12/26 10:10:37;;;;;;;5.60;0.93;;;;;;;;;;4919833;29;20078;-87
2023/12/26 10:13:08;;;;;;;5.70;0.93;;;;;;;;;;4915668;29;20056;-87
2023/12/26 10:15:38;;;;;;;6.85;1.17;;;;;;;;;;4948260;29;20048;-88
2023/12/26 10:18:10;;;;;;;3.50;1.15;;;;;;;;;;4936221;29;20056;-88
2023/12/26 10:20:41;;;;;;;2.63;0.88;;;;;;;;;;4918033;29;20063;-86
2023/12/26 10:23:12;;;;;;;2.92;0.98;;;;;;;;;;4918647;29;20145;-87
2023/12/26 10:25:44;;;;;;;2.80;1.10;;;;;;;;;;4934984;29;20044;-86
2023/12/26 10:28:16;;;;;;;3.63;0.90;;;;;;;;;;4936010;29;20051;-86
2023/12/26 10:30:47;;;;;;;3.05;1.02;;;;;;;;;;4934656;29;20356;-85
2023/12/26 10:33:27;;;;;;;3.88;1.10;;;;;;;;;;4936523;29;20047;-84
2023/12/26 10:36:06;;;;;;;3.60;1.10;;;;;;;;;;4934223;29;20059;-87
2023/12/26 10:38:38;;;;;;;1.75;0.70;;;;;;;;;;4919514;29;20055;-84
2023/12/26 10:41:14;;;;;;;3.60;1.15;;;;;;;;;;4919991;29;20065;-84
2023/12/26 10:43:48;;;;;;;2.00;0.80;;;;;;;;;;4935518;29;20060;-84
2023/12/26 10:46:20;;;;;;;3.92;1.00;;;;;;;;;;4915675;29;20055;-85
2023/12/26 10:48:55;;;;;;;1.23;0.90;;;;;;;;;;4912135;29;20490;-86
2023/12/26 10:51:28;;;;;;;5.10;0.95;;;;;;;;;;4916424;29;20058;-86
2023/12/26 10:54:13;;;;;;;1.35;0.90;;;;;;;;;;4899003;29;20063;-89
2023/12/26 10:56:45;;;;;;;2.22;0.75;;;;;;;;;;4932194;29;20063;-86
2023/12/26 13:55:19;;;;;;;3.47;2.47;;;;;;;;;;4955666;29;20051;-81
2023/12/26 13:58:26;;;;;;;3.80;0.55;;;;;;;;;;4956142;29;20058;-80
2023/12/26 14:01:32;;;;;;;2.20;0.50;;;;;;;;;;4955739;29;20066;-81
2023/12/26 14:04:41;;;;;;;0.75;0.30;;;;;;;;;;4955753;29;20046;-81
2023/12/26 14:07:11;;;;;;;1.60;0.40;;;;;;;;;;4955533;29;20042;-82
2023/12/26 14:09:41;;;;;;;2.05;0.40;;;;;;;;;;4954263;29;20039;-80
2023/12/26 14:12:10;;;;;;;0.80;0.30;;;;;;;;;;4953744;29;20066;-80
2023/12/26 14:14:40;;;;;;;0.65;0.30;;;;;;;;;;4954352;29;20046;-81
2023/12/26 14:17:11;;;;;;;0.85;0.30;;;;;;;;;;4955224;29;20055;-81
2023/12/26 14:20:18;;;;;;;1.48;0.38;;;;;;;;;;4953590;29;20047;-80
2023/12/26 14:23:25;;;;;;;2.17;1.08;;;;;;;;;;4955573;29;20483;-82
2023/12/26 14:26:33;;;;;;;0.30;0.20;;;;;;;;;;4955049;29;20043;-83
2023/12/26 14:29:40;;;;;;;0.55;0.52;;;;;;;;;;4936178;29;20048;-84
2023/12/26 14:32:48;;;;;;;0.93;0.30;;;;;;;;;;4937780;29;20051;-83
2023/12/26 14:35:56;;;;;;;3.53;0.50;;;;;;;;;;4953994;28;20051;-84
2023/12/26 14:39:04;;;;;;;0.68;0.30;;;;;;;;;;4917281;29;20510;-82
2023/12/26 14:42:12;;;;;;;0.75;0.40;;;;;;;;;;4934352;29;20084;-83
2023/12/26 14:44:42;;;;;;;0.25;0.25;;;;;;;;;;4952676;29;20043;-81
2023/12/26 14:47:13;;;;;;;1.25;0.60;;;;;;;;;;4952845;29;20059;-83
2023/12/26 14:49:44;;;;;;;0.40;0.30;;;;;;;;;;4953413;29;20062;-82
2023/12/26 14:52:15;;;;;;;1.33;0.32;;;;;;;;;;4953589;28;20090;-82
2023/12/26 14:54:46;;;;;;;2.05;0.30;;;;;;;;;;4957263;29;20047;-82
2023/12/26 14:57:26;;;;;;;0.52;0.35;;;;;;;;;;4939731;29;20059;-83
2023/12/26 15:00:33;;;;;;;0.95;0.25;;;;;;;;;;4938865;29;20062;-83
2023/12/26 15:03:05;;;;;;;0.85;0.52;;;;;;;;;;4950578;29;20054;-83
2023/12/26 15:05:36;;;;;;;0.93;0.38;;;;;;;;;;4958687;29;20039;-83
2023/12/26 15:08:07;;;;;;;1.10;0.73;;;;;;;;;;4959170;29;20047;-82
2023/12/26 15:10:37;;;;;;;0.40;0.15;;;;;;;;;;4958599;29;20058;-83
2023/12/26 15:13:07;;;;;;;2.40;0.40;;;;;;;;;;4958609;29;20054;-83
2023/12/26 15:15:38;;;;;;;0.45;0.30;;;;;;;;;;4957669;29;20478;-82
2023/12/26 15:18:10;;;;;;;1.67;0.63;;;;;;;;;;4958045;28;20043;-82
2023/12/26 15:20:42;;;;;;;1.08;0.20;;;;;;;;;;4935454;29;20051;-83
2023/12/26 15:23:13;;;;;;;1.02;0.30;;;;;;;;;;4937421;29;20055;-82
2023/12/26 15:25:43;;;;;;;4.00;0.47;;;;;;;;;;4936751;29;20068;-82
2023/12/26 15:28:13;;;;;;;1.80;0.50;;;;;;;;;;4936940;29;20058;-83
2023/12/26 15:30:44;;;;;;;1.13;0.43;;;;;;;;;;4941007;29;20051;-82
2023/12/26 15:33:17;;;;;;;1.20;0.40;;;;;;;;;;4956324;29;20066;-81
2023/12/26 15:35:48;;;;;;;1.75;0.50;;;;;;;;;;4938098;29;20062;-81
2023/12/26 15:38:19;;;;;;;0.88;0.45;;;;;;;;;;4938957;29;20039;-82
2023/12/26 15:40:49;;;;;;;0.95;0.38;;;;;;;;;;4955954;29;20077;-82
2023/12/26 15:43:20;;;;;;;1.58;0.30;;;;;;;;;;4956785;29;20383;-82
2023/12/26 15:45:51;;;;;;;0.88;0.38;;;;;;;;;;4939189;29;20047;-82
2023/12/26 15:48:21;;;;;;;;;;;;;;;;;;4956548;29;20046;-84
2023/12/26 15:50:51;;;;;;;0.57;0.30;;;;;;;;;;4956689;29;19937;-83
2023/12/26 15:53:21;;;;;;;0.52;0.32;;;;;;;;;;4955371;29;20398;-82
2023/12/26 15:55:52;;;;;;;0.43;0.35;;;;;;;;;;4938963;29;20035;-83
2023/12/26 15:58:24;;;;;;;1.33;0.57;;;;;;;;;;4933500;29;20052;-83
2023/12/26 16:00:54;;;;;;;1.05;0.40;;;;;;;;;;4934277;29;20066;-83
2023/12/26 16:03:56;;;;;;;0.88;0.45;;;;;;;;;;4936410;29;20069;-84
2023/12/26 16:06:28;;;;;;;0.50;0.20;;;;;;;;;;4955120;29;20046;-84
2023/12/26 16:09:28;;;;;;;0.57;0.30;;;;;;;;;;4954420;29;20054;-82
2023/12/26 16:11:58;;;;;;;1.02;0.60;;;;;;;;;;4937741;29;20047;-83
2023/12/26 16:14:29;;;;;;;1.02;0.40;;;;;;;;;;4939466;29;20479;-83
2023/12/26 16:17:00;;;;;;;0.93;0.38;;;;;;;;;;4939204;29;20414;-84
2023/12/26 16:19:30;;;;;;;0.77;0.30;;;;;;;;;;4938597;29;20081;-84
2023/12/26 16:22:01;;;;;;;1.52;0.50;;;;;;;;;;4924652;29;20074;-86
2023/12/26 16:24:32;;;;;;;;;;;;;;;;;;4936766;29;20051;-82
2023/12/26 16:27:05;;;;;;;1.27;0.40;;;;;;;;;;4936086;29;19926;-83
2023/12/26 16:29:37;;;;;;;3.42;0.43;;;;;;;;;;4942501;29;20066;-84
2023/12/26 16:32:09;;;;;;;0.85;0.30;;;;;;;;;;4955322;29;20490;-83
2023/12/26 16:34:41;;;;;;;0.60;0.30;;;;;;;;;;4936271;29;20054;-83
2023/12/26 16:37:11;;;;;;;0.40;0.22;;;;;;;;;;4955230;29;20051;-83
2023/12/26 16:39:42;;;;;;;0.60;0.30;;;;;;;;;;4912721;29;20419;-83
2023/12/26 16:42:12;;;;;;;3.75;0.57;;;;;;;;;;4897429;29;20062;-83
2023/12/26 16:44:47;;;;;;;1.10;0.40;;;;;;;;;;4899758;29;20052;-85
2023/12/26 16:47:18;;;;;;;1.98;0.40;;;;;;;;;;4898618;29;20051;-83
2023/12/26 16:50:16;;;;;;;1.17;0.30;;;;;;;;;;4883370;29;20522;-84
2023/12/26 16:52:47;;;;;;;0.77;0.20;;;;;;;;;;4896339;29;20048;-87
2023/12/26 16:55:18;;;;;;;0.82;0.40;;;;;;;;;;4913403;29;20195;-86
2023/12/26 16:57:49;;;;;;;1.00;0.30;;;;;;;;;;4914401;29;20087;-85
2023/12/26 17:00:20;;;;;;;0.75;0.28;;;;;;;;;;4910886;29;20044;-84
2023/12/26 17:03:24;;;;;;;1.25;0.38;;;;;;;;;;4891535;29;20725;-85
2023/12/26 17:05:54;;;;;;;0.68;0.20;;;;;;;;;;4909330;29;20052;-85
2023/12/26 17:08:25;;;;;;;0.73;0.63;;;;;;;;;;4899153;29;20422;-85
2023/12/26 17:10:56;;;;;;;0.60;0.30;;;;;;;;;;4913644;29;20072;-84
2023/12/26 17:13:28;;;;;;;0.57;0.32;;;;;;;;;;4897468;29;20051;-84
2023/12/26 17:16:01;;;;;;;1.65;0.30;;;;;;;;;;4896795;29;20048;-85
2023/12/26 17:18:32;;;;;;;0.75;0.52;;;;;;;;;;4947868;29;20525;-86
2023/12/26 17:21:04;;;;;;;0.57;0.30;;;;;;;;;;4935450;29;20051;-86
2023/12/26 17:23:34;;;;;;;0.75;0.22;;;;;;;;;;4934755;29;20059;-86
2023/12/26 17:26:04;;;;;;;0.98;0.30;;;;;;;;;;4936708;29;20062;-84
2023/12/26 17:28:35;;;;;;;3.42;0.30;;;;;;;;;;4936741;29;20050;-86
2023/12/26 17:31:06;;;;;;;0.68;0.25;;;;;;;;;;4935238;29;20510;-87
2023/12/26 17:33:38;;;;;;;0.43;0.30;;;;;;;;;;4937162;29;20404;-86
2023/12/26 17:36:08;;;;;;;;;;;;;;;;;;4938514;29;20402;-86
2023/12/26 17:38:38;;;;;;;1.15;0.30;;;;;;;;;;4937258;29;20385;-82
2023/12/26 17:41:08;;;;;;;0.65;0.40;;;;;;;;;;4951980;29;20043;-86
2023/12/26 17:43:39;;;;;;;0.57;0.20;;;;;;;;;;4922347;29;20054;-84
2023/12/26 17:46:09;;;;;;;1.77;0.20;;;;;;;;;;4955341;29;20054;-85
2023/12/26 17:48:39;;;;;;;2.47;0.30;;;;;;;;;;4954303;29;20051;-84
2023/12/26 17:51:09;;;;;;;0.60;0.30;;;;;;;;;;4955348;29;20047;-85
2023/12/26 17:53:40;;;;;;;1.23;0.60;;;;;;;;;;4940037;29;20058;-85
2023/12/26 17:56:19;;;;;;;3.75;0.40;;;;;;;;;;4956681;29;20463;-84
2023/12/26 17:58:50;;;;;;;1.08;0.32;;;;;;;;;;4939657;29;20054;-85
2023/12/26 18:01:20;;;;;;;0.90;0.20;;;;;;;;;;4956066;28;20051;-82
2023/12/26 18:03:51;;;;;;;1.25;0.40;;;;;;;;;;4938401;29;20517;-86
2023/12/26 18:06:29;;;;;;;4.78;0.47;;;;;;;;;;4938501;29;20106;-87
2023/12/26 18:09:00;;;;;;;2.15;0.73;;;;;;;;;;4954921;29;20047;-85
2023/12/26 18:11:32;;;;;;;1.58;0.22;;;;;;;;;;4955233;29;20051;-87